Time;durP1;ratioP1;P1;durP2;ratioP2;P2;SDS_P1;SDS_P2;PMS_P1;PMS_P2;Temp;Humidity;BMP_temperature;BMP_pressure;BME280_temperature;BME280_humidity;BME280_pressure;Samples;Min_cycle;Max_cycle;Signal;HPM_P1;HPM_P2
2022/10/20 00:02:18;;;;;;;23.35;12.65;;;;;;;8.49;100.00;101677.38;4971620;28;20030;-76
2022/10/20 00:04:43;;;;;;;19.55;12.00;;;;;;;8.46;100.00;101675.63;4971475;28;20042;-76
2022/10/20 00:07:10;;;;;;;19.20;12.00;;;;;;;8.49;100.00;101661.78;4972787;28;20034;-76
2022/10/20 00:09:35;;;;;;;14.52;11.13;;;;;;;8.47;100.00;101663.50;4969965;28;20914;-76
2022/10/20 00:12:00;;;;;;;20.67;12.95;;;;;;;8.43;100.00;101660.91;4968704;28;20078;-76
2022/10/20 00:14:25;;;;;;;19.95;12.95;;;;;;;8.41;100.00;101662.66;4971340;28;20031;-76
2022/10/20 00:16:51;;;;;;;17.30;13.15;;;;;;;8.38;100.00;101673.06;4970389;28;20074;-76
2022/10/20 00:19:16;;;;;;;23.38;12.82;;;;;;;8.37;100.00;101668.69;4971305;28;20058;-76
2022/10/20 00:21:41;;;;;;;22.38;12.18;;;;;;;8.34;100.00;101667.84;4965981;28;20045;-76
2022/10/20 00:24:07;;;;;;;22.67;12.65;;;;;;;8.33;100.00;101660.88;4969847;28;20050;-76
2022/10/20 00:26:32;;;;;;;21.33;13.93;;;;;;;8.32;100.00;101664.38;4971659;28;20035;-76
2022/10/20 00:28:58;;;;;;;23.05;14.38;;;;;;;8.33;100.00;101668.69;4971760;28;20057;-76
2022/10/20 00:31:24;;;;;;;23.42;14.07;;;;;;;8.31;100.00;101652.25;4968092;28;20027;-76
2022/10/20 00:33:50;;;;;;;26.08;14.27;;;;;;;8.32;100.00;101651.38;4970771;28;20027;-76
2022/10/20 00:36:17;;;;;;;24.98;15.23;;;;;;;8.25;100.00;101637.53;4971265;28;20113;-76
2022/10/20 00:38:42;;;;;;;23.02;14.77;;;;;;;8.34;100.00;101641.84;4969567;28;20033;-76
2022/10/20 00:41:08;;;;;;;21.30;14.30;;;;;;;8.31;100.00;101640.13;4969626;28;20035;-76
2022/10/20 00:43:44;;;;;;;24.23;14.68;;;;;;;8.35;100.00;101638.38;4967617;28;20054;-76
2022/10/20 00:46:12;;;;;;;29.48;15.10;;;;;;;8.35;100.00;101628.84;4969705;28;20038;-76
2022/10/20 00:48:39;;;;;;;24.20;14.52;;;;;;;8.35;100.00;101626.25;4968778;28;20019;-76
2022/10/20 00:51:05;;;;;;;23.77;15.38;;;;;;;8.37;100.00;101619.34;4970016;28;20031;-76
2022/10/20 00:53:30;;;;;;;30.23;15.18;;;;;;;8.33;100.00;101620.19;4968064;28;20054;-76
2022/10/20 00:55:57;;;;;;;21.50;14.18;;;;;;;8.26;100.00;101612.41;4971274;28;20034;-76
2022/10/20 00:58:25;;;;;;;30.35;16.02;;;;;;;8.30;100.00;101624.53;4969583;28;20034;-76
2022/10/20 01:00:55;;;;;;;23.95;15.15;;;;;;;8.29;100.00;101628.84;4969554;28;20030;-76
2022/10/20 01:03:29;;;;;;;27.48;15.20;;;;;;;8.28;100.00;101629.72;4970527;28;20027;-76
2022/10/20 01:05:54;;;;;;;26.35;15.10;;;;;;;8.33;100.00;101624.53;4970491;28;20113;-76
2022/10/20 01:08:19;;;;;;;27.00;15.07;;;;;;;8.33;100.00;101619.31;4971117;28;20101;-76
2022/10/20 01:11:01;;;;;;;26.42;15.25;;;;;;;8.29;100.00;101599.41;4969533;28;20047;-76
2022/10/20 01:13:51;;;;;;;29.55;15.63;;;;;;;8.28;100.00;101582.13;4966778;28;20394;-76
2022/10/20 01:16:45;;;;;;;25.50;15.63;;;;;;;8.34;100.00;101580.38;4969318;28;21866;-75
2022/10/20 01:19:23;;;;;;;28.77;16.35;;;;;;;8.35;100.00;101571.69;4964069;28;20031;-76
2022/10/20 01:22:24;;;;;;;25.20;16.02;;;;;;;8.31;100.00;101564.78;4969401;28;20045;-76
2022/10/20 01:25:00;;;;;;;29.52;16.02;;;;;;;8.34;100.00;101566.53;4960487;28;20097;-75
2022/10/20 01:27:31;;;;;;;30.75;16.52;;;;;;;8.35;100.00;101561.31;4971862;28;20110;-76
2022/10/20 01:30:12;;;;;;;28.85;16.42;;;;;;;8.37;100.00;101556.97;4975967;28;20211;-76
2022/10/20 01:32:46;;;;;;;29.40;16.75;;;;;;;8.38;100.00;101548.34;4971120;28;20563;-76
2022/10/20 01:35:23;;;;;;;29.95;16.58;;;;;;;8.37;100.00;101551.78;4973102;28;20050;-76
2022/10/20 01:37:48;;;;;;;34.65;17.25;;;;;;;8.40;100.00;101549.22;4975109;28;20125;-76
2022/10/20 01:40:21;;;;;;;28.27;16.90;;;;;;;8.40;100.00;101549.22;4973943;28;20574;-76
2022/10/20 01:42:49;;;;;;;28.50;16.52;;;;;;;8.37;100.00;101556.09;4972995;28;20413;-76
2022/10/20 01:45:17;;;;;;;29.98;17.20;;;;;;;8.44;100.00;101556.13;4972855;28;20030;-76
2022/10/20 01:47:44;;;;;;;32.60;18.13;;;;;;;8.45;100.00;101562.16;4973134;28;20582;-76
2022/10/20 01:50:11;;;;;;;31.27;17.48;;;;;;;8.39;100.00;101557.00;4970454;28;20050;-76
2022/10/20 01:52:36;;;;;;;33.25;17.27;;;;;;;8.40;100.00;101558.72;4973162;28;20035;-76
2022/10/20 01:55:10;;;;;;;24.40;16.83;;;;;;;8.32;100.00;101547.47;4973570;28;20046;-76
2022/10/20 01:57:59;;;;;;;29.02;16.83;;;;;;;8.31;100.00;101557.00;4969915;28;20042;-76
2022/10/20 02:00:24;;;;;;;26.38;16.77;;;;;;;8.25;100.00;101545.75;4971532;28;20031;-76
2022/10/20 02:02:58;;;;;;;31.73;17.02;;;;;;;8.23;100.00;101552.66;4973872;28;20109;-76
2022/10/20 02:05:55;;;;;;;33.47;17.63;;;;;;;8.28;100.00;101561.34;4972686;28;20077;-76
2022/10/20 02:08:43;;;;;;;29.63;18.23;;;;;;;8.26;100.00;101544.88;4973355;28;20430;-76
2022/10/20 02:11:17;;;;;;;34.03;18.52;;;;;;;8.25;100.00;101538.81;4967115;28;20538;-75
2022/10/20 02:13:43;;;;;;;29.85;18.15;;;;;;;8.27;100.00;101537.06;4973103;28;20085;-76
2022/10/20 02:16:14;;;;;;;39.40;18.70;;;;;;;8.28;100.00;101527.56;4972401;28;20022;-76
2022/10/20 02:18:42;;;;;;;30.40;18.85;;;;;;;8.24;100.00;101520.63;4971837;28;20624;-76
2022/10/20 02:21:09;;;;;;;31.40;19.23;;;;;;;8.27;100.00;101523.22;4971549;28;20101;-76
2022/10/20 02:23:37;;;;;;;31.23;19.10;;;;;;;8.28;100.00;101512.84;4972556;28;20071;-76
2022/10/20 02:26:06;;;;;;;31.45;18.02;;;;;;;8.30;100.00;101516.28;4973810;28;20030;-76
2022/10/20 02:28:34;;;;;;;34.95;18.95;;;;;;;8.29;100.00;101505.91;4973404;28;20078;-76
2022/10/20 02:31:01;;;;;;;34.92;19.83;;;;;;;8.31;100.00;101492.03;4972369;28;20065;-76
2022/10/20 02:33:28;;;;;;;36.67;19.85;;;;;;;8.32;100.00;101488.56;4971850;28;20548;-76
2022/10/20 02:35:58;;;;;;;38.10;20.27;;;;;;;8.32;100.00;101488.56;4971882;28;20038;-76
2022/10/20 02:38:24;;;;;;;33.35;19.02;;;;;;;8.28;100.00;101475.59;4969907;28;20038;-76
2022/10/20 02:40:49;;;;;;;32.78;18.65;;;;;;;8.32;100.00;101472.13;4973191;28;20038;-76
2022/10/20 02:43:15;;;;;;;36.28;19.75;;;;;;;8.29;100.00;101461.75;4972532;28;20062;-76
2022/10/20 02:45:40;;;;;;;37.90;20.00;;;;;;;8.32;100.00;101467.78;4954768;28;20062;-76
2022/10/20 02:48:08;;;;;;;34.28;19.15;;;;;;;8.31;100.00;101460.00;4974512;28;20545;-76
2022/10/20 02:50:33;;;;;;;35.10;19.92;;;;;;;8.32;100.00;101451.34;4973457;28;20113;-76
2022/10/20 02:52:59;;;;;;;31.70;19.20;;;;;;;8.31;100.00;101454.81;4972744;28;20671;-76
2022/10/20 02:55:24;;;;;;;34.13;19.30;;;;;;;8.29;100.00;101453.94;4971782;28;20042;-76
2022/10/20 02:57:50;;;;;;;32.08;18.30;;;;;;;8.26;100.00;101441.81;4972447;28;20034;-76
2022/10/20 03:00:15;;;;;;;34.22;18.65;;;;;;;8.26;100.00;101436.63;4971657;28;20027;-76
2022/10/20 03:02:40;;;;;;;33.13;18.50;;;;;;;8.22;100.00;101429.72;4972611;28;20027;-76
2022/10/20 03:05:06;;;;;;;31.08;18.85;;;;;;;8.20;100.00;101436.66;4972370;28;20054;-76
2022/10/20 03:07:31;;;;;;;34.75;19.00;;;;;;;8.15;100.00;101418.50;4972682;28;20534;-76
2022/10/20 03:09:56;;;;;;;33.17;19.17;;;;;;;8.19;100.00;101420.22;4973216;28;20049;-76
2022/10/20 03:12:22;;;;;;;35.03;19.10;;;;;;;8.20;100.00;101416.72;4970470;28;20065;-76
2022/10/20 03:14:47;;;;;;;31.70;18.27;;;;;;;8.23;100.00;101415.00;4972118;28;20383;-76
2022/10/20 03:17:12;;;;;;;36.78;20.42;;;;;;;8.19;100.00;101408.97;4973008;28;20903;-76
2022/10/20 03:19:39;;;;;;;37.38;18.73;;;;;;;8.25;100.00;101419.31;4971695;28;20182;-76
2022/10/20 03:22:05;;;;;;;36.15;20.02;;;;;;;8.24;100.00;101408.94;4973073;28;20035;-76
2022/10/20 03:24:30;;;;;;;37.80;20.50;;;;;;;8.25;100.00;101406.34;4970801;28;20034;-76
2022/10/20 03:26:55;;;;;;;35.55;19.58;;;;;;;8.28;100.00;101402.88;4972338;28;20046;-76
2022/10/20 03:29:20;;;;;;;32.58;19.08;;;;;;;8.29;100.00;101409.78;4971283;28;20546;-76
2022/10/20 03:31:46;;;;;;;37.38;19.95;;;;;;;8.29;100.00;101392.47;4972513;28;20101;-76
2022/10/20 03:34:12;;;;;;;36.05;21.17;;;;;;;8.31;100.00;101398.53;4970546;28;20073;-76
2022/10/20 03:36:37;;;;;;;36.00;20.20;;;;;;;8.31;100.00;101393.31;4972154;28;20405;-76
2022/10/20 03:39:03;;;;;;;40.25;20.73;;;;;;;8.34;100.00;101400.25;4972910;28;20114;-75
2022/10/20 03:41:28;;;;;;;38.63;20.95;;;;;;;8.33;100.00;101383.75;4970583;28;20042;-76
2022/10/20 03:43:53;;;;;;;40.10;21.05;;;;;;;8.36;100.00;101382.91;4976345;28;20393;-75
2022/10/20 03:46:18;;;;;;;39.65;22.13;;;;;;;8.41;100.00;101387.22;4975364;28;20038;-76
2022/10/20 03:48:44;;;;;;;40.45;21.58;;;;;;;8.43;100.00;101384.63;4972017;28;20031;-76
2022/10/20 03:51:12;;;;;;;44.80;22.05;;;;;;;8.46;100.00;101386.34;4969933;28;20029;-76
2022/10/20 03:53:37;;;;;;;38.58;21.67;;;;;;;8.49;100.00;101370.72;4970672;28;20185;-76
2022/10/20 03:56:07;;;;;;;43.33;21.75;;;;;;;8.52;100.00;101366.38;4970044;28;20118;-76
2022/10/20 03:58:33;;;;;;;45.25;22.33;;;;;;;8.56;100.00;101369.81;4970543;28;20125;-76
2022/10/20 04:00:58;;;;;;;45.33;22.00;;;;;;;8.53;100.00;101362.88;4972017;28;20029;-76
2022/10/20 04:03:24;;;;;;;38.35;21.42;;;;;;;8.58;100.00;101362.88;4969433;28;20031;-76
2022/10/20 04:05:49;;;;;;;42.25;22.60;;;;;;;8.66;100.00;101368.88;4970820;28;20126;-76
2022/10/20 04:08:14;;;;;;;42.72;23.10;;;;;;;8.71;100.00;101366.25;4971866;28;20027;-76
2022/10/20 04:10:39;;;;;;;44.58;23.15;;;;;;;8.72;100.00;101367.97;4970796;28;20042;-75
2022/10/20 04:13:05;;;;;;;43.45;24.02;;;;;;;8.76;100.00;101364.47;4971168;28;20027;-75
2022/10/20 04:15:30;;;;;;;48.05;23.67;;;;;;;8.78;100.00;101354.94;4969785;28;20045;-75
2022/10/20 04:17:55;;;;;;;52.17;23.88;;;;;;;8.82;100.00;101349.69;4972753;28;20038;-76
2022/10/20 04:20:21;;;;;;;44.88;23.30;;;;;;;8.90;100.00;101341.84;4971208;28;20131;-76
2022/10/20 04:22:46;;;;;;;43.63;22.25;;;;;;;8.96;100.00;101341.78;4972337;28;20382;-76
2022/10/20 04:25:11;;;;;;;45.53;23.13;;;;;;;8.92;100.00;101332.25;4969467;28;20505;-76
2022/10/20 04:27:38;;;;;;;48.10;24.63;;;;;;;9.01;100.00;101331.34;4971209;28;20076;-76
2022/10/20 04:30:04;;;;;;;44.47;23.45;;;;;;;9.02;100.00;101320.91;4969540;28;20030;-76
2022/10/20 04:32:29;;;;;;;42.88;22.70;;;;;;;9.07;100.00;101319.13;4970910;28;20105;-76
2022/10/20 04:34:55;;;;;;;43.42;23.02;;;;;;;9.10;100.00;101315.66;4970421;28;20498;-76
2022/10/20 04:37:24;;;;;;;40.95;22.00;;;;;;;9.07;100.00;101308.72;4970729;28;20413;-76
2022/10/20 04:39:52;;;;;;;38.97;21.00;;;;;;;9.18;100.00;101320.75;4971880;28;20073;-76
2022/10/20 04:42:18;;;;;;;40.35;22.15;;;;;;;9.19;100.00;101305.16;4970782;28;20081;-76
2022/10/20 04:44:43;;;;;;;37.60;21.13;;;;;;;9.22;100.00;101315.53;4966461;28;20030;-76
2022/10/20 04:47:09;;;;;;;40.70;22.65;;;;;;;9.22;100.00;101293.81;4978629;28;20172;-76
2022/10/20 04:49:34;;;;;;;39.78;22.08;;;;;;;9.27;100.00;101289.44;4971423;28;20057;-76
2022/10/20 04:52:00;;;;;;;38.15;22.23;;;;;;;9.27;100.00;101287.72;4971423;28;20547;-76
2022/10/20 04:54:25;;;;;;;38.42;22.15;;;;;;;9.31;100.00;101293.72;4968724;28;20039;-76
2022/10/20 04:56:50;;;;;;;37.70;21.60;;;;;;;9.32;100.00;101293.72;4971839;28;20030;-76
2022/10/20 04:59:16;;;;;;;36.35;21.10;;;;;;;9.33;100.00;101294.59;4970163;28;20019;-76
2022/10/20 05:01:41;;;;;;;36.92;21.25;;;;;;;9.37;100.00;101288.47;4970125;28;20031;-76
2022/10/20 05:04:08;;;;;;;35.95;20.75;;;;;;;9.32;100.00;101287.69;4971677;28;20501;-76
2022/10/20 05:06:33;;;;;;;32.97;20.70;;;;;;;9.32;100.00;101291.13;4968513;28;20041;-76
2022/10/20 05:09:01;;;;;;;32.22;20.50;;;;;;;9.30;100.00;101300.69;4969220;28;20640;-75
2022/10/20 05:11:28;;;;;;;38.90;20.48;;;;;;;9.32;100.00;101305.88;4968500;28;20128;-76
2022/10/20 05:13:54;;;;;;;37.08;20.23;;;;;;;9.26;100.00;101299.00;4971925;28;20112;-76
2022/10/20 05:16:20;;;;;;;35.50;20.20;;;;;;;9.23;100.00;101277.38;4971674;28;20534;-76
2022/10/20 05:18:47;;;;;;;36.35;21.15;;;;;;;9.25;100.00;101267.78;4971515;28;20127;-76
2022/10/20 05:21:15;;;;;;;38.53;21.45;;;;;;;9.18;100.00;101248.78;4971740;28;20031;-76
2022/10/20 05:23:42;;;;;;;40.17;21.30;;;;;;;9.14;100.00;101258.34;4968513;28;20066;-76
2022/10/20 05:26:14;;;;;;;36.00;21.08;;;;;;;9.14;100.00;101275.72;4971007;28;20386;-75
2022/10/20 05:28:43;;;;;;;39.97;20.45;;;;;;;9.09;100.00;101278.38;4971496;28;20038;-76
2022/10/20 05:31:08;;;;;;;39.58;20.75;;;;;;;9.09;100.00;101280.97;4970503;28;20081;-76
2022/10/20 05:33:34;;;;;;;34.15;21.65;;;;;;;9.05;100.00;101284.47;4968323;28;20478;-76
2022/10/20 05:36:06;;;;;;;39.00;21.65;;;;;;;8.99;100.00;101281.94;4971963;28;20023;-76
2022/10/20 05:38:31;;;;;;;35.65;21.17;;;;;;;8.98;100.00;101275.00;4968845;28;20031;-76
2022/10/20 05:41:11;;;;;;;39.50;21.60;;;;;;;8.94;100.00;101249.91;4970642;28;20034;-76
2022/10/20 05:43:37;;;;;;;41.70;20.95;;;;;;;8.97;100.00;101251.63;4971465;28;20038;-76
2022/10/20 05:46:03;;;;;;;37.90;21.38;;;;;;;8.96;100.00;101262.88;4971809;28;20052;-76
2022/10/20 05:48:29;;;;;;;39.63;20.88;;;;;;;8.93;100.00;101255.13;4970064;28;20026;-76
2022/10/20 05:50:54;;;;;;;41.50;22.00;;;;;;;8.93;100.00;101271.59;4971859;28;20027;-76
2022/10/20 05:53:19;;;;;;;43.80;22.38;;;;;;;8.93;100.00;101278.50;4970985;28;20019;-76
2022/10/20 05:55:45;;;;;;;36.97;21.13;;;;;;;8.90;100.00;101269.03;4971079;28;20102;-76
2022/10/20 05:58:10;;;;;;;39.10;21.83;;;;;;;8.84;100.00;101269.09;4971356;28;20051;-76
2022/10/20 06:00:40;;;;;;;40.85;22.40;;;;;;;8.86;100.00;101272.50;4954188;28;20051;-76
2022/10/20 06:03:07;;;;;;;44.10;23.17;;;;;;;8.88;100.00;101270.78;4971478;28;20055;-76
2022/10/20 06:05:33;;;;;;;43.30;22.98;;;;;;;8.93;100.00;101270.72;4970575;28;20034;-76
2022/10/20 06:07:58;;;;;;;43.33;23.88;;;;;;;8.96;100.00;101263.78;4971225;28;20026;-76
2022/10/20 06:10:24;;;;;;;39.60;22.83;;;;;;;8.96;100.00;101271.56;4970775;28;20029;-76
2022/10/20 06:12:49;;;;;;;42.67;22.25;;;;;;;8.95;100.00;101253.38;4974003;28;20031;-76
2022/10/20 06:15:14;;;;;;;43.38;22.15;;;;;;;8.99;100.00;101258.53;4973995;28;20389;-76
2022/10/20 06:17:40;;;;;;;41.45;23.58;;;;;;;9.09;100.00;101265.38;4974606;28;20042;-76
2022/10/20 06:20:05;;;;;;;43.38;23.02;;;;;;;9.13;100.00;101264.44;4975166;28;20023;-76
2022/10/20 06:22:30;;;;;;;45.33;23.08;;;;;;;9.15;100.00;101269.63;4973518;28;20081;-76
2022/10/20 06:24:56;;;;;;;36.38;20.52;;;;;;;9.11;100.00;101278.34;4975534;28;20053;-76
2022/10/20 06:27:21;;;;;;;35.03;21.73;;;;;;;9.21;100.00;101285.16;4974190;28;20380;-76
2022/10/20 06:29:46;;;;;;;40.58;22.15;;;;;;;9.26;100.00;101269.53;4974149;28;20105;-76
2022/10/20 06:32:12;;;;;;;42.85;22.38;;;;;;;9.27;100.00;101266.03;4974777;28;20486;-76
2022/10/20 06:34:37;;;;;;;43.70;22.45;;;;;;;9.37;100.00;101272.84;4974118;28;20041;-76
2022/10/20 06:37:02;;;;;;;37.80;21.92;;;;;;;9.40;100.00;101259.81;4974404;28;20113;-76
2022/10/20 06:39:28;;;;;;;35.17;20.95;;;;;;;9.42;100.00;101252.84;4973922;28;20106;-76
2022/10/20 06:41:53;;;;;;;40.30;21.35;;;;;;;9.51;100.00;101265.72;4974969;28;20046;-76
2022/10/20 06:44:21;;;;;;;37.60;21.67;;;;;;;9.54;100.00;101257.88;4973311;28;20023;-76
2022/10/20 06:46:46;;;;;;;34.05;21.10;;;;;;;9.47;100.00;101245.84;4974559;28;20505;-76
2022/10/20 06:49:13;;;;;;;39.70;22.08;;;;;;;9.65;100.00;101267.31;4974334;28;20027;-76
2022/10/20 06:51:41;;;;;;;33.85;20.90;;;;;;;9.71;100.00;101255.09;4973089;28;20565;-76
2022/10/20 06:54:06;;;;;;;30.85;20.92;;;;;;;9.76;100.00;101255.03;4974919;28;20081;-76
2022/10/20 06:56:34;;;;;;;34.47;19.58;;;;;;;9.76;100.00;101249.81;4973488;28;20391;-76
2022/10/20 06:59:00;;;;;;;37.47;21.27;;;;;;;9.84;100.00;101248.84;4973720;28;20475;-77
2022/10/20 07:01:31;;;;;;;31.00;19.58;;;;;;;9.83;100.00;101233.22;4973523;28;20035;-76
2022/10/20 07:03:59;;;;;;;31.63;19.85;;;;;;;9.90;100.00;101232.25;4974579;28;20109;-76
2022/10/20 07:06:30;;;;;;;35.83;19.98;;;;;;;9.92;100.00;101232.22;4973431;28;20023;-76
2022/10/20 07:08:56;;;;;;;33.92;19.75;;;;;;;9.98;100.00;101238.22;4974540;28;20023;-76
2022/10/20 07:11:27;;;;;;;28.05;18.85;;;;;;;10.05;100.00;101250.25;4972858;28;20414;-76
2022/10/20 07:13:53;;;;;;;31.88;19.30;;;;;;;10.02;100.00;101247.69;4960899;28;20053;-76
2022/10/20 07:16:22;;;;;;;31.98;20.05;;;;;;;10.08;100.00;101249.34;4971224;28;20485;-75
2022/10/20 07:18:48;;;;;;;35.22;19.35;;;;;;;10.17;100.00;101254.44;4972948;28;20058;-75
2022/10/20 07:21:17;;;;;;;30.50;18.50;;;;;;;10.22;100.00;101263.03;4973609;28;20437;-75
2022/10/20 07:23:43;;;;;;;29.85;18.55;;;;;;;10.29;100.00;101253.41;4972290;28;20070;-75
2022/10/20 07:26:16;;;;;;;32.00;18.17;;;;;;;10.34;100.00;101250.75;4972478;28;20035;-75
2022/10/20 07:28:45;;;;;;;30.35;18.52;;;;;;;10.36;100.00;101244.59;4973410;28;20410;-75
2022/10/20 07:31:14;;;;;;;31.23;18.00;;;;;;;10.42;100.00;101257.53;4972149;28;20023;-75
2022/10/20 07:33:40;;;;;;;31.08;18.05;;;;;;;10.41;100.00;101248.00;4972438;28;20026;-75
2022/10/20 07:36:22;;;;;;;35.08;18.70;;;;;;;10.52;100.00;101256.50;4972616;28;20506;-75
2022/10/20 07:38:48;;;;;;;25.40;16.73;;;;;;;10.58;100.00;101252.06;4973686;28;20037;-75
2022/10/20 07:41:14;;;;;;;32.97;18.23;;;;;;;10.58;100.00;101249.47;4972225;28;20139;-76
2022/10/20 07:43:40;;;;;;;26.85;17.58;;;;;;;10.65;100.00;101251.06;4972220;28;20070;-74
2022/10/20 07:46:06;;;;;;;27.60;17.90;;;;;;;10.71;100.00;101253.59;4971517;28;20051;-74
2022/10/20 07:48:32;;;;;;;31.45;18.00;;;;;;;10.77;100.00;101256.94;4971656;28;20192;-75
2022/10/20 07:51:20;;;;;;;28.15;16.98;;;;;;;10.83;100.00;101242.94;4973742;28;20427;-77
2022/10/20 07:53:45;;;;;;;28.30;16.98;;;;;;;10.82;100.00;101238.59;4972559;28;20058;-76
2022/10/20 07:56:10;;;;;;;28.05;17.42;;;;;;;10.86;100.00;101242.88;4971867;28;20054;-76
2022/10/20 07:58:36;;;;;;;27.65;17.27;;;;;;;10.91;100.00;101253.22;4972903;28;20471;-76
2022/10/20 08:01:01;;;;;;;29.92;17.88;;;;;;;10.94;100.00;101261.00;4971461;28;20498;-76
2022/10/20 08:03:27;;;;;;;31.23;17.10;;;;;;;10.96;100.00;101252.25;4972291;28;20375;-76
2022/10/20 08:05:52;;;;;;;26.08;16.55;;;;;;;11.06;100.00;101236.44;4971521;28;20517;-76
2022/10/20 08:08:17;;;;;;;25.08;17.45;;;;;;;11.15;100.00;101237.13;4971075;28;20073;-76
2022/10/20 08:10:42;;;;;;;24.52;16.75;;;;;;;11.23;100.00;101250.00;4971849;28;20482;-77
2022/10/20 08:13:08;;;;;;;25.80;16.88;;;;;;;11.33;100.00;101251.53;4972694;28;20042;-76
2022/10/20 08:15:33;;;;;;;28.40;16.00;;;;;;;11.45;100.00;101248.69;4969899;28;20390;-77
2022/10/20 08:17:58;;;;;;;24.63;16.67;;;;;;;11.58;100.00;101251.06;4973003;28;20031;-76
2022/10/20 08:20:24;;;;;;;24.77;16.85;;;;;;;11.61;100.00;101224.88;4971948;28;20026;-78
2022/10/20 08:22:49;;;;;;;26.60;15.88;;;;;;;11.61;100.00;101228.34;4971173;28;20482;-78
2022/10/20 08:25:15;;;;;;;22.88;15.38;;;;;;;11.79;100.00;101234.03;4980165;28;20096;-78
2022/10/20 08:27:41;;;;;;;30.63;16.70;;;;;;;11.80;100.00;101228.78;4972641;28;20093;-78
2022/10/20 08:30:06;;;;;;;28.13;16.05;;;;;;;11.87;100.00;101242.59;4972542;28;20382;-78
2022/10/20 08:32:32;;;;;;;25.65;14.80;;;;;;;11.76;100.00;101214.06;4971807;28;20041;-88
2022/10/20 08:34:57;;;;;;;24.75;15.05;;;;;;;11.92;100.00;101235.53;4972936;28;20382;-79
2022/10/20 08:37:24;;;;;;;24.40;14.57;;;;;;;11.94;100.00;101245.06;4971119;28;20423;-78
2022/10/20 08:39:49;;;;;;;20.35;15.52;;;;;;;12.01;100.00;101243.16;4972681;28;20470;-78
2022/10/20 08:42:15;;;;;;;22.42;14.27;;;;;;;12.04;100.00;101237.88;4972192;28;20081;-78
2022/10/20 08:44:44;;;;;;;19.92;14.60;;;;;;;12.19;100.00;101234.88;4971533;28;20042;-78
2022/10/20 08:47:23;;;;;;;20.67;14.77;;;;;;;12.31;100.00;101238.94;4972341;28;20037;-78
2022/10/20 08:49:49;;;;;;;23.17;13.98;;;;;;;12.39;100.00;101239.66;4971721;28;20169;-78
2022/10/20 08:52:17;;;;;;;24.20;14.35;;;;;;;12.52;100.00;101226.22;4972086;28;20116;-78
2022/10/20 08:54:42;;;;;;;21.88;14.50;;;;;;;12.62;100.00;101206.78;4972221;28;20037;-78
2022/10/20 08:57:26;;;;;;;24.55;14.82;;;;;;;12.91;100.00;101208.63;4971727;28;20027;-78
2022/10/20 08:59:55;;;;;;;20.50;13.57;;;;;;;12.93;100.00;101185.06;4972257;28;20389;-78
2022/10/20 09:02:21;;;;;;;24.15;13.25;;;;;;;13.00;100.00;101186.59;4971537;28;20027;-78
2022/10/20 09:04:58;;;;;;;22.05;13.73;;;;;;;13.11;100.00;101206.34;4971532;28;20066;-78
2022/10/20 09:07:28;;;;;;;16.30;12.63;;;;;;;13.23;100.00;101209.50;4971643;28;20019;-79
2022/10/20 09:10:19;;;;;;;19.65;13.25;;;;;;;13.23;100.00;101197.25;4971996;28;20022;-78
2022/10/20 09:12:47;;;;;;;22.65;13.98;;;;;;;13.34;100.00;101199.59;4960802;28;20573;-78
2022/10/20 09:15:13;;;;;;;18.67;12.32;;;;;;;13.39;100.00;101217.81;4968827;28;20113;-78
2022/10/20 09:17:43;;;;;;;20.33;13.27;;;;;;;13.41;100.00;101208.16;4971237;28;20394;-78
2022/10/20 09:20:32;;;;;;;22.30;13.93;;;;;;;13.41;100.00;101202.94;4970350;28;20030;-79
2022/10/20 09:22:58;;;;;;;18.60;12.63;;;;;;;13.38;100.00;101216.09;4978074;28;20047;-79
2022/10/20 09:25:26;;;;;;;22.30;13.38;;;;;;;13.35;100.00;101212.66;4970932;28;20470;-78
2022/10/20 09:27:52;;;;;;;22.20;12.98;;;;;;;13.31;100.00;101205.81;4972226;28;20114;-78
2022/10/20 09:30:38;;;;;;;16.90;12.55;;;;;;;13.31;100.00;101208.44;4977431;28;20058;-78
2022/10/20 09:33:33;;;;;;;19.33;12.70;;;;;;;13.29;100.00;101202.38;4957754;28;20058;-78
2022/10/20 09:36:15;;;;;;;19.58;12.68;;;;;;;13.26;100.00;101198.97;4971961;28;20065;-76
2022/10/20 09:38:50;;;;;;;21.77;12.68;;;;;;;13.32;100.00;101201.41;4964934;28;20035;-77
2022/10/20 09:41:22;;;;;;;20.67;13.40;;;;;;;13.27;100.00;101217.25;4969803;28;20043;-77
2022/10/20 09:43:55;;;;;;;19.33;12.43;;;;;;;13.24;100.00;101224.31;4971962;28;20027;-78
2022/10/20 09:46:24;;;;;;;20.63;13.23;;;;;;;13.15;100.00;101225.44;4970763;28;20026;-77
2022/10/20 09:48:50;;;;;;;18.42;12.50;;;;;;;13.14;100.00;101218.47;4975330;28;20039;-78
2022/10/20 09:51:20;;;;;;;19.27;13.18;;;;;;;13.04;100.00;101204.78;4972631;28;20023;-78
2022/10/20 09:53:57;;;;;;;16.85;12.27;;;;;;;13.00;100.00;101189.22;4972796;28;20506;-78
2022/10/20 09:56:32;;;;;;;19.63;12.15;;;;;;;12.94;100.00;101184.16;4973819;28;20031;-77
2022/10/20 09:59:00;;;;;;;18.70;13.07;;;;;;;12.95;100.00;101201.56;4974913;28;20037;-78
2022/10/20 10:01:26;;;;;;;17.13;12.90;;;;;;;12.88;100.00;101201.75;4968748;28;20023;-78
2022/10/20 10:03:57;;;;;;;24.45;13.88;;;;;;;12.80;100.00;101198.47;4976006;28;20037;-78
2022/10/20 10:06:36;;;;;;;19.92;14.57;;;;;;;12.68;100.00;101201.41;4971701;28;20034;-77
2022/10/20 10:09:21;;;;;;;20.35;13.82;;;;;;;12.54;100.00;101193.06;4974293;28;20031;-77
2022/10/20 10:11:57;;;;;;;23.15;13.65;;;;;;;12.44;100.00;101199.44;4974295;28;20031;-77
2022/10/20 10:14:22;;;;;;;23.95;15.18;;;;;;;12.36;100.00;101210.97;4973157;28;20073;-77
2022/10/20 10:16:47;;;;;;;24.40;16.13;;;;;;;12.27;100.00;101200.72;4975373;28;20483;-78
2022/10/20 10:19:18;;;;;;;26.45;16.77;;;;;;;12.21;100.00;101194.78;4976366;28;20038;-77
2022/10/20 10:21:53;;;;;;;26.95;16.33;;;;;;;12.11;100.00;101181.09;4978254;28;20052;-78
2022/10/20 10:24:39;;;;;;;24.15;17.33;;;;;;;12.11;100.00;101181.94;4973692;28;20042;-79
2022/10/20 10:27:18;;;;;;;29.23;17.35;;;;;;;12.06;100.00;101175.09;4973477;28;20038;-81
2022/10/20 10:29:44;;;;;;;32.72;18.60;;;;;;;12.03;100.00;101165.56;4972924;28;20484;-81
2022/10/20 10:32:27;;;;;;;32.72;19.48;;;;;;;12.08;100.00;101170.69;4967492;28;20034;-82
2022/10/20 10:35:14;;;;;;;35.42;18.98;;;;;;;12.19;100.00;101179.13;4973174;28;20584;-82
2022/10/20 10:37:42;;;;;;;31.63;19.55;;;;;;;12.22;100.00;101167.75;4974035;28;20042;-81
2022/10/20 10:40:15;;;;;;;35.75;20.38;;;;;;;12.22;100.00;101158.13;4974765;28;20030;-79
2022/10/20 10:43:01;;;;;;;41.67;21.58;;;;;;;12.24;100.00;101168.56;4972303;28;20506;-80
2022/10/20 10:45:55;;;;;;;38.60;21.05;;;;;;;12.16;100.00;101160.91;4972958;28;20034;-80
2022/10/20 10:48:50;;;;;;;35.17;21.80;;;;;;;12.29;100.00;101170.16;4961365;28;20109;-80
2022/10/20 10:51:25;;;;;;;35.15;21.42;;;;;;;12.30;100.00;101179.72;4942170;28;20118;-82
2022/10/20 10:54:01;;;;;;;42.95;22.10;;;;;;;12.29;100.00;101183.22;4974694;28;20027;-83
2022/10/20 10:56:44;;;;;;;36.85;21.60;;;;;;;12.27;100.00;101189.41;4971126;28;20132;-83
2022/10/20 10:59:15;;;;;;;31.98;21.27;;;;;;;12.27;100.00;101161.50;4972444;28;20077;-82
2022/10/20 11:01:59;;;;;;;36.47;22.17;;;;;;;12.28;100.00;101175.44;4973638;28;20133;-81
2022/10/20 11:04:30;;;;;;;37.85;22.08;;;;;;;12.29;100.00;101157.06;4971789;28;20031;-81
2022/10/20 11:07:17;;;;;;;37.85;23.13;;;;;;;12.34;100.00;101150.00;4972303;28;20038;-81
2022/10/20 11:10:00;;;;;;;37.97;22.20;;;;;;;12.36;100.00;101135.13;4975967;28;20026;-81
2022/10/20 11:12:37;;;;;;;36.35;22.20;;;;;;;12.39;100.00;101136.78;4961999;28;20027;-82
2022/10/20 11:15:22;;;;;;;43.97;22.75;;;;;;;12.34;100.00;101134.31;4979446;28;20026;-80
2022/10/20 11:17:54;;;;;;;37.75;22.35;;;;;;;12.39;100.00;101142.00;4973531;28;20030;-80